Time;durP1;ratioP1;P1;durP2;ratioP2;P2;SDS_P1;SDS_P2;PMS_P1;PMS_P2;Temp;Humidity;BMP_temperature;BMP_pressure;BME280_temperature;BME280_humidity;BME280_pressure;Samples;Min_cycle;Max_cycle;Signal;HPM_P1;HPM_P2
2023/07/25 00:01:27;;;;;;;3.80;2.92;;;;;;;-141.84;83.61;20698.00;5045000;28;20261;-64
2023/07/25 00:03:55;;;;;;;4.75;2.75;;;;;;;-141.84;82.83;20738.66;5044286;28;20275;-64
2023/07/25 00:06:24;;;;;;;3.72;2.75;;;;;;;-141.84;82.90;20716.31;5036648;28;20229;-64
2023/07/25 00:08:52;;;;;;;5.20;2.90;;;;;;;-141.84;81.77;20787.47;5044952;28;20328;-64
2023/07/25 00:11:21;;;;;;;3.55;2.75;;;;;;;-141.84;81.28;20754.94;5044553;28;20316;-63
2023/07/25 00:13:51;;;;;;;4.32;2.92;;;;;;;-141.84;82.18;20748.84;5045034;28;20215;-63
2023/07/25 00:16:20;;;;;;;5.53;3.10;;;;;;;-141.84;81.75;20759.00;5037322;28;20239;-63
2023/07/25 00:18:48;;;;;;;5.15;2.55;;;;;;;-141.84;82.84;20730.53;5044133;28;20602;-64
2023/07/25 00:21:17;;;;;;;3.65;2.55;;;;;;;-141.84;83.52;20702.09;5044074;28;20225;-64
2023/07/25 00:23:45;;;;;;;3.45;3.13;;;;;;;-141.84;84.09;20712.25;5044079;28;20598;-63
2023/07/25 00:26:14;;;;;;;4.50;3.00;;;;;;;-141.84;84.35;20704.13;5053075;28;20239;-64
2023/07/25 00:28:42;;;;;;;4.15;3.05;;;;;;;-141.84;84.66;20706.16;5064955;28;20208;-63
2023/07/25 00:31:12;;;;;;;3.90;2.95;;;;;;;-141.84;85.42;20649.22;5064011;28;20282;-63
2023/07/25 00:33:40;;;;;;;5.50;3.33;;;;;;;-141.84;85.56;20663.47;5034171;28;20234;-64
2023/07/25 00:36:09;;;;;;;5.22;3.25;;;;;;;-141.84;85.98;20679.72;5024520;28;20244;-64
2023/07/25 00:38:37;;;;;;;3.33;3.03;;;;;;;-141.84;86.04;20655.31;5018359;28;20324;-64
2023/07/25 00:41:06;;;;;;;4.38;3.05;;;;;;;-141.84;86.34;20632.97;5024223;28;20260;-64
2023/07/25 00:43:34;;;;;;;9.80;3.40;;;;;;;-141.84;86.50;20614.66;5035417;28;20624;-63
2023/07/25 00:46:03;;;;;;;6.85;3.50;;;;;;;-141.84;85.17;20655.31;5043604;28;20804;-63
2023/07/25 00:48:33;;;;;;;3.42;2.97;;;;;;;-141.84;85.62;20647.19;5052613;28;20749;-63
2023/07/25 00:51:01;;;;;;;4.22;2.97;;;;;;;-141.84;86.38;20622.81;5063824;28;20649;-63
2023/07/25 00:53:30;;;;;;;3.25;2.67;;;;;;;-141.84;86.68;20622.81;5063507;28;20231;-64
2023/07/25 00:56:01;;;;;;;3.90;3.30;;;;;;;-141.84;87.26;20610.59;5049854;28;20292;-63
2023/07/25 00:58:30;;;;;;;5.22;4.00;;;;;;;-141.84;87.75;20602.47;5036145;28;20202;-64
2023/07/25 01:01:03;;;;;;;4.07;3.70;;;;;;;-141.84;87.91;20635.00;5043980;28;20345;-64
2023/07/25 01:03:35;;;;;;;4.35;3.35;;;;;;;-141.84;88.01;20614.66;5043630;28;20244;-63
2023/07/25 01:06:06;;;;;;;5.22;3.70;;;;;;;-141.84;88.06;20645.16;5043487;28;20244;-63
2023/07/25 01:08:47;;;;;;;7.47;3.70;;;;;;;-141.84;87.45;20582.16;5035271;28;20233;-64
2023/07/25 01:11:15;;;;;;;3.67;3.20;;;;;;;-141.84;87.30;20635.00;5043510;28;20237;-63
2023/07/25 01:13:44;;;;;;;3.97;3.58;;;;;;;-141.84;86.85;20571.97;5044116;28;20255;-64
2023/07/25 01:16:16;;;;;;;4.00;3.60;;;;;;;-141.84;87.14;20590.28;5041708;28;20242;-63
2023/07/25 01:18:47;;;;;;;5.18;3.45;;;;;;;-141.84;87.90;20590.28;5058143;28;20271;-64
2023/07/25 01:21:16;;;;;;;5.05;3.28;;;;;;;-141.84;88.37;20576.03;5063156;28;20228;-63
2023/07/25 01:23:45;;;;;;;5.43;3.50;;;;;;;-141.84;88.84;20588.25;5063291;28;20232;-64
2023/07/25 01:26:16;;;;;;;3.45;3.15;;;;;;;-141.84;89.14;20551.66;5044086;28;20231;-65
2023/07/25 01:28:45;;;;;;;5.05;3.70;;;;;;;-141.84;89.53;20563.84;5039072;28;20241;-64
2023/07/25 01:31:13;;;;;;;4.63;3.40;;;;;;;-141.84;89.15;20578.09;5023109;28;20229;-63
2023/07/25 01:33:42;;;;;;;3.72;3.42;;;;;;;-141.84;88.61;20590.28;5023269;28;20238;-63
2023/07/25 01:36:10;;;;;;;5.82;3.80;;;;;;;-141.84;88.55;20565.88;5023099;28;20237;-64
2023/07/25 01:38:39;;;;;;;4.97;3.80;;;;;;;-141.84;88.72;20598.41;5019957;28;20360;-63
2023/07/25 01:41:07;;;;;;;5.00;3.60;;;;;;;-141.84;88.22;20569.94;5022958;28;20198;-63
2023/07/25 01:43:37;;;;;;;6.30;3.83;;;;;;;-141.84;88.43;20555.72;5034573;28;20210;-63
2023/07/25 01:46:06;;;;;;;6.45;3.60;;;;;;;-141.84;88.29;20569.94;5041847;28;20238;-64
2023/07/25 01:48:34;;;;;;;5.18;3.78;;;;;;;-141.84;87.88;20594.34;5051761;28;20232;-64
2023/07/25 01:51:03;;;;;;;6.63;3.65;;;;;;;-141.84;88.12;20600.44;5043072;28;20237;-64
2023/07/25 01:53:31;;;;;;;5.75;4.13;;;;;;;-141.84;88.37;20551.66;5042814;28;20374;-64
2023/07/25 01:56:00;;;;;;;4.13;3.40;;;;;;;-141.84;88.46;20537.44;5028901;28;20259;-64
2023/07/25 01:58:28;;;;;;;6.65;4.05;;;;;;;-141.84;89.07;20551.66;5015282;28;20214;-63
2023/07/25 02:00:59;;;;;;;5.45;3.92;;;;;;;-141.84;89.11;20545.56;5022948;28;20320;-63
2023/07/25 02:03:28;;;;;;;7.80;4.40;;;;;;;-141.84;89.25;20527.25;5022506;28;20234;-63
2023/07/25 02:05:57;;;;;;;7.28;4.30;;;;;;;-141.84;89.20;20535.41;5023211;28;20230;-62
2023/07/25 02:08:25;;;;;;;6.80;4.80;;;;;;;-141.84;89.49;20523.19;5014834;28;20308;-64
2023/07/25 02:10:54;;;;;;;7.85;4.60;;;;;;;-141.84;89.44;20571.97;5022891;28;20597;-63
2023/07/25 02:13:22;;;;;;;7.20;4.90;;;;;;;-141.84;88.28;20557.75;5022710;28;20268;-64
2023/07/25 02:15:51;;;;;;;11.40;5.00;;;;;;;-141.84;87.73;20596.38;5022416;28;20804;-63
2023/07/25 02:18:20;;;;;;;4.75;4.25;;;;;;;-141.84;86.39;20639.06;5014496;28;20316;-64
2023/07/25 02:20:49;;;;;;;9.25;4.70;;;;;;;-141.84;85.92;20641.09;5022553;28;20717;-64
2023/07/25 02:23:17;;;;;;;4.85;4.28;;;;;;;-141.84;86.43;20614.66;5021934;28;20637;-64
2023/07/25 02:25:47;;;;;;;6.10;4.63;;;;;;;-141.84;85.31;20673.63;5012142;28;20330;-64
2023/07/25 02:28:16;;;;;;;8.23;4.28;;;;;;;-141.84;85.08;20616.69;4994531;28;20262;-65
2023/07/25 02:30:45;;;;;;;7.85;4.90;;;;;;;-141.84;85.42;20637.03;5002536;28;20237;-63
2023/07/25 02:33:14;;;;;;;7.40;4.80;;;;;;;-141.84;85.14;20639.06;5002523;28;20238;-64
2023/07/25 02:35:44;;;;;;;4.68;4.25;;;;;;;-141.84;84.68;20592.31;5002720;28;20311;-63
2023/07/25 02:38:12;;;;;;;6.93;4.90;;;;;;;-141.84;84.85;20675.66;4999697;28;20238;-64
2023/07/25 02:40:41;;;;;;;8.98;4.90;;;;;;;-141.84;84.92;20651.25;4999851;28;20211;-64
2023/07/25 02:43:09;;;;;;;6.30;4.80;;;;;;;-141.84;84.99;20673.63;5009352;28;20255;-63
2023/07/25 02:45:38;;;;;;;8.80;4.85;;;;;;;-141.84;83.94;20671.59;5021981;28;20222;-64
2023/07/25 02:48:07;;;;;;;7.65;4.95;;;;;;;-141.84;83.95;20706.16;5034226;28;20229;-63
2023/07/25 02:50:35;;;;;;;6.50;4.40;;;;;;;-141.84;83.89;20712.25;5033370;28;20290;-63
2023/07/25 02:53:05;;;;;;;8.18;5.05;;;;;;;-141.84;83.78;20706.16;5021298;28;20216;-63
2023/07/25 02:55:33;;;;;;;8.35;5.32;;;;;;;-141.84;83.68;20712.25;5025522;28;20294;-64
2023/07/25 02:58:02;;;;;;;7.30;5.30;;;;;;;-141.84;83.34;20706.16;5043404;28;20221;-64
2023/07/25 03:00:30;;;;;;;9.73;4.90;;;;;;;-141.84;83.62;20710.22;5016983;28;20325;-63
2023/07/25 03:02:59;;;;;;;8.57;5.65;;;;;;;-141.84;83.11;20720.38;5024561;28;20238;-64
2023/07/25 03:05:28;;;;;;;6.22;5.28;;;;;;;-141.84;79.91;20777.28;5024188;28;20230;-63
2023/07/25 03:07:57;;;;;;;6.07;4.90;;;;;;;-141.84;80.85;20716.31;5025005;28;20233;-63
2023/07/25 03:10:27;;;;;;;6.60;5.07;;;;;;;-141.84;81.61;20724.44;5016350;28;20261;-63
2023/07/25 03:12:56;;;;;;;7.22;5.65;;;;;;;-141.84;82.48;20702.09;5024561;28;20776;-64
2023/07/25 03:15:24;;;;;;;6.47;5.70;;;;;;;-141.84;82.65;20714.28;5024651;28;20237;-63
2023/07/25 03:17:54;;;;;;;9.55;5.55;;;;;;;-141.84;82.33;20712.25;5020349;28;20272;-64
2023/07/25 03:20:22;;;;;;;6.47;5.80;;;;;;;-141.84;80.40;20759.00;5016158;28;20579;-63
2023/07/25 03:22:51;;;;;;;7.78;5.40;;;;;;;-141.84;81.14;20732.56;5007222;28;20217;-64
2023/07/25 03:25:19;;;;;;;6.53;5.88;;;;;;;-141.84;81.04;20756.97;5020845;28;20312;-63
2023/07/25 03:27:49;;;;;;;8.10;6.40;;;;;;;-141.84;81.55;20734.59;5043683;28;20236;-64
2023/07/25 03:30:18;;;;;;;11.57;6.57;;;;;;;-141.84;82.01;20720.38;5036869;28;20313;-63
2023/07/25 03:32:46;;;;;;;7.25;6.00;;;;;;;-141.84;82.09;20756.97;5043954;28;20609;-64
2023/07/25 03:35:16;;;;;;;9.70;7.00;;;;;;;-141.84;80.94;20744.78;5044193;28;20688;-64
2023/07/25 03:37:44;;;;;;;7.13;6.30;;;;;;;-141.84;81.57;20767.13;5044094;28;20274;-66
2023/07/25 03:40:13;;;;;;;7.78;6.40;;;;;;;-141.84;81.98;20716.31;5040588;28;20272;-63
2023/07/25 03:42:41;;;;;;;8.52;6.00;;;;;;;-141.84;82.44;20691.91;5040027;28;20308;-63
2023/07/25 03:45:12;;;;;;;7.78;6.38;;;;;;;-141.84;81.79;20736.63;5023627;28;20252;-63
2023/07/25 03:47:40;;;;;;;9.55;6.22;;;;;;;-141.84;81.05;20767.13;5025943;28;20321;-64
2023/07/25 03:50:09;;;;;;;7.43;6.43;;;;;;;-141.84;81.01;20738.66;4998949;28;1080125;-64
2023/07/25 03:52:38;;;;;;;8.68;6.13;;;;;;;-141.84;80.88;20789.50;5040955;28;20209;-64
2023/07/25 03:55:07;;;;;;;7.57;5.95;;;;;;;-141.84;81.01;20748.84;5044540;28;20245;-64
2023/07/25 03:57:35;;;;;;;6.63;5.90;;;;;;;-141.84;79.61;20771.19;5047446;28;20719;-64
2023/07/25 04:00:05;;;;;;;7.82;6.20;;;;;;;-141.84;77.86;20817.94;5047538;28;20312;-63
2023/07/25 04:02:35;;;;;;;7.90;6.10;;;;;;;-141.84;77.80;20795.59;5036988;28;22610;-63
2023/07/25 04:05:03;;;;;;;6.80;5.95;;;;;;;-141.84;79.10;20805.75;5044753;28;20236;-65
2023/07/25 04:07:34;;;;;;;10.02;6.22;;;;;;;-141.84;80.10;20744.78;5045103;28;20233;-64
2023/07/25 04:10:02;;;;;;;9.70;6.15;;;;;;;-141.84;80.21;20769.16;5044459;28;20233;-64
2023/07/25 04:12:31;;;;;;;8.13;6.07;;;;;;;-141.84;80.09;20746.81;5036219;28;20658;-64
2023/07/25 04:14:59;;;;;;;7.35;6.03;;;;;;;-141.84;79.97;20728.50;5044179;28;20699;-64
2023/07/25 04:17:28;;;;;;;9.90;6.20;;;;;;;-141.84;79.59;20763.06;5041692;28;20311;-64
2023/07/25 04:19:58;;;;;;;6.90;5.93;;;;;;;-141.84;79.55;20759.00;5024977;28;20583;-64
2023/07/25 04:22:26;;;;;;;7.72;5.93;;;;;;;-141.84;78.79;20773.22;5017023;28;20228;-64
2023/07/25 04:24:55;;;;;;;7.72;5.63;;;;;;;-141.84;79.63;20716.31;5033912;28;20905;-64
2023/07/25 04:27:23;;;;;;;7.00;6.40;;;;;;;-141.84;80.62;20744.78;5064221;28;20762;-63
2023/07/25 04:29:52;;;;;;;12.80;7.03;;;;;;;-141.84;80.23;20724.44;5064261;28;20779;-64
2023/07/25 04:32:20;;;;;;;7.63;6.20;;;;;;;-141.84;79.91;20775.25;5056513;28;20252;-64
2023/07/25 04:34:49;;;;;;;7.82;6.32;;;;;;;-141.84;79.19;20832.19;5064245;28;20209;-64
2023/07/25 04:37:19;;;;;;;7.80;6.65;;;;;;;-141.84;77.84;20862.69;5063684;28;20327;-63
2023/07/25 04:39:47;;;;;;;8.93;5.85;;;;;;;-141.84;75.54;20925.69;5046846;28;20324;-64
2023/07/25 04:42:16;;;;;;;8.13;6.28;;;;;;;-141.84;73.49;20984.66;5035376;28;20237;-64
2023/07/25 04:44:45;;;;;;;5.82;5.10;;;;;;;-141.84;74.47;20954.16;5031346;28;20320;-62
2023/07/25 04:47:14;;;;;;;9.43;5.47;;;;;;;-141.84;74.36;20927.72;5033691;28;20228;-63
2023/07/25 04:49:42;;;;;;;7.55;5.75;;;;;;;-141.84;74.43;20966.34;5063915;28;20327;-63
2023/07/25 04:52:11;;;;;;;6.25;4.78;;;;;;;-141.84;75.17;20952.13;5063937;28;20286;-64
2023/07/25 04:54:41;;;;;;;5.60;4.90;;;;;;;-141.84;75.50;20923.66;5057748;28;20293;-64
2023/07/25 04:57:09;;;;;;;6.05;3.90;;;;;;;-141.84;74.08;20923.66;5043291;28;20598;-63
2023/07/25 04:59:38;;;;;;;3.65;3.35;;;;;;;-141.84;73.81;20923.66;5043363;28;20230;-64
2023/07/25 05:02:06;;;;;;;5.85;3.17;;;;;;;-141.84;74.25;20907.41;5043084;28;20241;-64
2023/07/25 05:04:35;;;;;;;4.50;3.38;;;;;;;-141.84;73.39;20925.69;5036560;28;20236;-64
2023/07/25 05:07:03;;;;;;;5.30;2.92;;;;;;;-141.84;73.07;20885.03;5043723;28;20243;-64
2023/07/25 05:09:32;;;;;;;3.67;3.22;;;;;;;-141.84;73.79;20907.41;5043778;28;20315;-65
2023/07/25 05:12:04;;;;;;;4.55;3.47;;;;;;;-141.84;72.15;20976.53;5043438;28;20366;-64
2023/07/25 05:14:32;;;;;;;3.47;2.90;;;;;;;-141.84;72.57;20939.94;5025379;28;20729;-64
2023/07/25 05:17:01;;;;;;;4.72;2.90;;;;;;;-141.84;73.31;20899.28;5030239;28;20299;-63
2023/07/25 05:19:29;;;;;;;5.40;2.90;;;;;;;-141.84;72.85;20895.19;5062655;28;20314;-65
2023/07/25 05:21:58;;;;;;;3.03;2.55;;;;;;;-141.84;73.12;20925.69;5063223;28;20224;-64
2023/07/25 05:24:26;;;;;;;4.68;3.13;;;;;;;-141.84;71.80;20954.16;5054187;28;20249;-64
2023/07/25 05:26:55;;;;;;;3.28;2.80;;;;;;;-141.84;72.90;20915.53;5043408;28;20306;-63
2023/07/25 05:29:30;;;;;;;4.43;2.85;;;;;;;-141.84;71.65;20996.84;5043479;28;20229;-64
2023/07/25 05:31:58;;;;;;;4.32;2.78;;;;;;;-141.84;71.77;20972.47;5043299;28;20211;-64
2023/07/25 05:34:27;;;;;;;4.68;3.22;;;;;;;-141.84;71.29;21019.22;5035790;28;20312;-63
2023/07/25 05:36:55;;;;;;;2.70;2.30;;;;;;;-141.84;70.97;20986.69;5043073;28;20257;-63
2023/07/25 05:39:24;;;;;;;3.78;3.10;;;;;;;-141.84;70.62;21000.91;5043244;28;20720;-64
2023/07/25 05:41:52;;;;;;;4.63;3.33;;;;;;;-141.84;70.65;21000.91;5040400;28;20295;-63
2023/07/25 05:44:21;;;;;;;3.92;2.95;;;;;;;-141.84;70.63;21025.31;5034882;28;20229;-63
2023/07/25 05:46:50;;;;;;;3.45;3.10;;;;;;;-141.84;70.71;21021.25;5045312;28;20308;-64
2023/07/25 05:49:18;;;;;;;3.65;2.60;;;;;;;-141.84;70.47;21037.50;5062751;28;20276;-62
2023/07/25 05:51:47;;;;;;;3.97;3.05;;;;;;;-141.84;70.92;21011.09;5062713;28;20225;-64
2023/07/25 05:54:16;;;;;;;4.43;3.60;;;;;;;-141.84;68.57;21029.38;5055226;28;20232;-64
2023/07/25 05:56:44;;;;;;;3.85;3.55;;;;;;;-141.84;67.97;21122.91;5022143;28;20768;-64
2023/07/25 05:59:13;;;;;;;5.72;3.75;;;;;;;-141.84;66.60;21183.88;5038088;28;20209;-64
2023/07/25 06:01:41;;;;;;;4.03;3.63;;;;;;;-141.84;67.03;21196.09;5043268;28;20624;-64
2023/07/25 06:04:13;;;;;;;4.68;3.80;;;;;;;-141.84;66.39;21192.03;5042485;28;20233;-64
2023/07/25 06:06:41;;;;;;;5.30;3.70;;;;;;;-141.84;65.46;21224.56;5042298;28;20316;-65
2023/07/25 06:09:10;;;;;;;3.78;3.47;;;;;;;-141.84;66.37;21224.56;5042726;28;20315;-64
2023/07/25 06:11:39;;;;;;;5.90;3.75;;;;;;;-141.84;65.45;21196.09;5023868;28;20657;-63
2023/07/25 06:14:07;;;;;;;5.05;3.70;;;;;;;-141.84;66.17;21141.19;5022345;28;20678;-64
2023/07/25 06:16:37;;;;;;;4.43;4.03;;;;;;;-141.84;65.56;21214.38;5016792;28;20246;-64
2023/07/25 06:19:05;;;;;;;5.07;3.85;;;;;;;-141.84;65.39;21232.69;5061908;28;20232;-64
2023/07/25 06:21:35;;;;;;;5.45;3.53;;;;;;;-141.84;64.94;21269.28;5054163;28;20252;-64
2023/07/25 06:24:04;;;;;;;6.00;3.80;;;;;;;-141.84;64.34;21314.00;5042249;28;20229;-64
2023/07/25 06:26:33;;;;;;;5.57;3.72;;;;;;;-141.84;65.05;21285.53;5034707;28;20314;-63
2023/07/25 06:29:01;;;;;;;6.60;4.05;;;;;;;-141.84;62.98;21385.16;5042011;28;20751;-64
2023/07/25 06:31:30;;;;;;;4.95;3.50;;;;;;;-141.84;63.42;21366.88;5042069;28;20268;-64
2023/07/25 06:33:59;;;;;;;5.65;3.90;;;;;;;-141.84;62.37;21377.03;5042036;28;20764;-63
2023/07/25 06:36:27;;;;;;;5.30;4.25;;;;;;;-141.84;62.23;21370.94;5034467;28;20229;-62
2023/07/25 06:38:57;;;;;;;4.47;3.22;;;;;;;-141.84;63.05;21305.88;5045045;28;20296;-63
2023/07/25 06:41:26;;;;;;;6.68;3.60;;;;;;;-141.84;62.97;21332.31;5044918;28;20237;-63
2023/07/25 06:43:54;;;;;;;4.50;3.45;;;;;;;-141.84;61.29;21393.31;5052288;28;20280;-62
2023/07/25 06:46:24;;;;;;;3.40;3.10;;;;;;;-141.84;61.54;21377.03;5036293;28;20773;-63
2023/07/25 06:48:53;;;;;;;4.90;3.03;;;;;;;-141.84;60.75;21403.47;5044327;28;20220;-62
2023/07/25 06:51:22;;;;;;;4.50;3.00;;;;;;;-141.84;59.34;21488.88;5048910;28;20227;-62
2023/07/25 06:53:50;;;;;;;4.88;2.65;;;;;;;-141.84;57.88;21586.47;5047317;28;20290;-62
2023/07/25 06:56:20;;;;;;;5.47;2.70;;;;;;;-141.84;56.89;21659.66;5032776;28;20252;-66
2023/07/25 06:58:48;;;;;;;6.53;2.70;;;;;;;-141.84;56.75;21635.25;5039710;28;20231;-66
2023/07/25 07:01:17;;;;;;;3.83;2.60;;;;;;;-141.84;57.36;21541.72;5039454;28;20340;-66
2023/07/25 07:03:46;;;;;;;4.20;2.50;;;;;;;-141.84;57.80;21527.50;5038536;28;20229;-67
2023/07/25 07:06:14;;;;;;;5.25;2.60;;;;;;;-141.84;58.30;21501.06;5023774;28;20636;-64
2023/07/25 07:08:43;;;;;;;2.30;2.10;;;;;;;-141.84;59.11;21456.34;5020364;28;20682;-66
2023/07/25 07:11:11;;;;;;;5.70;3.03;;;;;;;-141.84;60.04;21442.09;5019611;28;20296;-66
2023/07/25 07:13:41;;;;;;;3.03;2.72;;;;;;;-141.84;58.82;21525.47;5019533;28;20297;-66
2023/07/25 07:16:09;;;;;;;3.45;2.80;;;;;;;-141.84;57.87;21503.09;5018823;28;20787;-67
2023/07/25 07:18:38;;;;;;;2.90;2.60;;;;;;;-141.84;57.96;21519.34;5028365;28;20452;-67
2023/07/25 07:21:07;;;;;;;4.88;2.10;;;;;;;-141.84;57.40;21576.28;5039255;28;20260;-66
2023/07/25 07:23:36;;;;;;;3.85;2.40;;;;;;;-141.84;56.23;21639.31;5039013;28;20820;-66
2023/07/25 07:26:04;;;;;;;4.72;2.47;;;;;;;-141.84;55.16;21704.38;5039187;28;20262;-66
2023/07/25 07:28:33;;;;;;;3.28;2.35;;;;;;;-141.84;56.91;21643.38;5031255;28;20272;-66
2023/07/25 07:31:04;;;;;;;3.38;2.10;;;;;;;-141.84;56.20;21663.72;5039147;28;20432;-66
2023/07/25 07:33:35;;;;;;;3.20;2.20;;;;;;;-141.84;55.41;21793.84;5031170;28;20221;-66
2023/07/25 07:36:04;;;;;;;2.90;2.08;;;;;;;-141.84;54.36;21804.03;5039514;28;20302;-66
2023/07/25 07:38:32;;;;;;;2.42;1.80;;;;;;;-141.84;54.46;21773.53;5031394;28;20665;-66
2023/07/25 07:41:01;;;;;;;2.10;1.70;;;;;;;-141.84;52.96;21856.91;5038809;28;20259;-66
2023/07/25 07:43:29;;;;;;;2.65;1.80;;;;;;;-141.84;52.06;21865.03;5042193;28;20237;-65
2023/07/25 07:45:58;;;;;;;2.28;1.80;;;;;;;-141.84;52.73;21832.50;5043495;28;20689;-66
2023/07/25 07:48:28;;;;;;;4.82;1.95;;;;;;;-141.84;52.35;21844.69;5046259;28;20240;-66
2023/07/25 07:50:56;;;;;;;2.45;1.80;;;;;;;-141.84;53.01;21799.97;5062152;28;20803;-66
2023/07/25 07:53:25;;;;;;;3.47;1.80;;;;;;;-141.84;51.75;21871.13;5062445;28;20266;-66
2023/07/25 07:55:53;;;;;;;3.33;1.88;;;;;;;-141.84;51.34;21840.63;5050665;28;20292;-67
2023/07/25 07:58:22;;;;;;;3.70;1.60;;;;;;;-141.84;52.11;21848.75;5035729;28;20758;-65
2023/07/25 08:00:50;;;;;;;3.63;1.60;;;;;;;-141.84;51.90;21797.94;5045714;28;20229;-65
2023/07/25 08:03:19;;;;;;;3.88;1.80;;;;;;;-141.84;52.37;21828.44;5033007;28;20781;-67
2023/07/25 08:05:56;;;;;;;4.30;2.00;;;;;;;-141.84;50.70;21932.13;5024493;28;20237;-66
2023/07/25 08:08:24;;;;;;;3.67;1.55;;;;;;;-141.84;50.31;21917.91;5017375;28;20350;-66
2023/07/25 08:10:53;;;;;;;3.05;1.52;;;;;;;-141.84;50.83;21903.66;5025610;28;20217;-66
2023/07/25 08:13:21;;;;;;;3.42;1.70;;;;;;;-141.84;51.33;21867.06;5026997;28;20709;-67
2023/07/25 08:15:50;;;;;;;4.22;2.05;;;;;;;-141.84;50.36;21930.09;5044844;28;20316;-66
2023/07/25 08:18:18;;;;;;;4.47;1.80;;;;;;;-141.84;51.71;21867.06;5037589;28;20229;-66
2023/07/25 08:20:48;;;;;;;4.28;1.70;;;;;;;-141.84;51.70;21877.22;5044727;28;20597;-66
2023/07/25 08:23:16;;;;;;;2.20;2.00;;;;;;;-141.84;51.60;21970.78;5045242;28;20296;-67
2023/07/25 08:25:45;;;;;;;3.85;2.00;;;;;;;-141.84;52.32;21883.31;5045074;28;20300;-65
2023/07/25 08:28:14;;;;;;;4.30;2.00;;;;;;;-141.84;53.11;21883.31;5038444;28;20229;-65
2023/07/25 08:30:42;;;;;;;2.60;1.73;;;;;;;-141.84;52.61;21928.06;5044217;28;20324;-66
2023/07/25 08:33:12;;;;;;;3.65;2.20;;;;;;;-141.84;52.12;21863.00;5044282;28;20267;-66
2023/07/25 08:35:40;;;;;;;4.10;2.03;;;;;;;-141.84;53.29;21797.94;5043496;28;20793;-67
2023/07/25 08:38:12;;;;;;;2.97;1.90;;;;;;;-141.84;53.92;21714.56;5044540;28;20288;-66
2023/07/25 08:40:42;;;;;;;6.03;2.28;;;;;;;-141.84;53.96;21680.00;5041459;28;20259;-66
2023/07/25 08:43:12;;;;;;;5.07;2.50;;;;;;;-141.84;55.42;21619.00;5044055;28;20706;-66
2023/07/25 08:45:43;;;;;;;3.45;2.03;;;;;;;-141.84;54.83;21639.31;5044197;28;20233;-66
2023/07/25 08:48:14;;;;;;;4.18;2.28;;;;;;;-141.84;54.59;21592.56;5047490;28;20244;-65
2023/07/25 08:50:46;;;;;;;6.18;2.33;;;;;;;-141.84;55.54;21560.03;5063519;28;20274;-66
2023/07/25 08:53:17;;;;;;;4.28;2.58;;;;;;;-141.84;55.49;21596.63;5063689;28;20248;-66
2023/07/25 08:55:46;;;;;;;4.72;2.58;;;;;;;-141.84;55.31;21586.47;5051645;28;20201;-67
2023/07/25 08:58:16;;;;;;;4.03;2.40;;;;;;;-141.84;55.59;21590.53;5034990;28;20324;-67
2023/07/25 09:00:45;;;;;;;4.05;2.33;;;;;;;-141.84;55.35;21539.69;5044197;28;20229;-66
2023/07/25 09:03:14;;;;;;;3.60;2.10;;;;;;;-141.84;56.42;21578.31;5043524;28;20264;-67
2023/07/25 09:05:43;;;;;;;3.75;2.15;;;;;;;-141.84;55.01;21661.69;5043352;28;20236;-68
2023/07/25 09:08:12;;;;;;;2.20;2.00;;;;;;;-141.84;54.85;21659.66;5042945;28;20209;-67
2023/07/25 09:10:44;;;;;;;2.75;2.00;;;;;;;-141.84;54.88;21710.50;5040489;28;20286;-67
2023/07/25 09:13:12;;;;;;;5.05;2.13;;;;;;;-141.84;53.99;21761.31;5043753;28;20240;-67
2023/07/25 09:15:41;;;;;;;3.25;2.17;;;;;;;-141.84;53.71;21751.16;5043176;28;20325;-66
2023/07/25 09:18:09;;;;;;;2.13;1.80;;;;;;;-141.84;53.78;21808.09;5043735;28;20678;-66
2023/07/25 09:20:38;;;;;;;3.17;1.95;;;;;;;-141.84;52.42;21930.09;5038288;28;20330;-66
2023/07/25 09:23:07;;;;;;;2.30;2.10;;;;;;;-141.84;51.02;21980.94;5043890;28;20209;-67
2023/07/25 09:25:35;;;;;;;3.10;2.10;;;;;;;-141.84;51.16;22025.66;5044018;28;20205;-66
2023/07/25 09:28:07;;;;;;;2.95;1.95;;;;;;;-141.84;50.78;22113.13;5043420;28;20596;-66
2023/07/25 09:30:36;;;;;;;3.28;1.80;;;;;;;-141.84;49.51;22155.81;5035090;28;20321;-67
2023/07/25 09:33:06;;;;;;;6.97;2.03;;;;;;;-141.84;50.02;22222.94;5043511;28;20325;-67
2023/07/25 09:35:35;;;;;;;2.70;2.17;;;;;;;-141.84;49.62;22202.59;5043142;28;20264;-66
2023/07/25 09:38:03;;;;;;;3.15;2.00;;;;;;;-141.84;49.51;22210.72;5042542;28;20216;-66
2023/07/25 09:40:38;;;;;;;2.85;2.05;;;;;;;-141.84;49.13;22243.25;5035655;28;20206;-69
2023/07/25 09:43:08;;;;;;;3.85;2.28;;;;;;;-141.84;49.91;22131.41;5043384;28;20236;-67
2023/07/25 09:45:38;;;;;;;3.25;2.03;;;;;;;-141.84;49.46;22168.03;5043627;28;20291;-67
2023/07/25 09:48:06;;;;;;;2.88;1.98;;;;;;;-141.84;49.68;22176.16;5035167;28;20679;-66
2023/07/25 09:50:35;;;;;;;4.50;2.47;;;;;;;-141.84;49.00;22204.63;5019877;28;20246;-66
2023/07/25 09:53:09;;;;;;;2.88;1.95;;;;;;;-141.84;49.14;22216.81;5023602;28;20264;-66
2023/07/25 09:55:38;;;;;;;4.72;2.15;;;;;;;-141.84;48.78;22210.72;5024545;28;20241;-67
2023/07/25 09:58:08;;;;;;;2.83;2.10;;;;;;;-141.84;49.43;22163.94;5023541;28;20269;-66
2023/07/25 10:00:37;;;;;;;3.30;2.00;;;;;;;-141.84;49.46;22113.13;5034336;28;20279;-67
2023/07/25 10:03:08;;;;;;;2.47;1.67;;;;;;;-141.84;50.43;22078.53;5042567;28;20229;-67
2023/07/25 10:05:38;;;;;;;2.70;2.10;;;;;;;-141.84;49.91;22096.84;5042399;28;20228;-67
2023/07/25 10:08:09;;;;;;;3.60;1.98;;;;;;;-141.84;49.08;22178.19;5042511;28;20307;-67
2023/07/25 10:10:40;;;;;;;2.60;2.10;;;;;;;-141.84;48.20;22290.03;5037807;28;20232;-65
2023/07/25 10:13:11;;;;;;;4.10;2.25;;;;;;;-141.84;47.90;22306.31;5042659;28;20275;-66
2023/07/25 10:15:41;;;;;;;3.35;2.17;;;;;;;-141.84;46.84;22391.72;5042395;28;20724;-67
2023/07/25 10:18:19;;;;;;;3.63;2.00;;;;;;;-141.84;47.55;22371.38;5042090;28;20233;-66
2023/07/25 10:20:48;;;;;;;3.25;1.75;;;;;;;-141.84;47.83;22351.03;5042595;28;20335;-66
2023/07/25 10:23:17;;;;;;;2.63;1.77;;;;;;;-141.84;47.78;22330.72;5042622;28;20213;-66
2023/07/25 10:25:46;;;;;;;2.30;2.05;;;;;;;-141.84;47.36;22324.59;5042923;28;20213;-66
2023/07/25 10:28:22;;;;;;;2.35;1.73;;;;;;;-141.84;47.31;22391.72;5034512;28;20697;-66
2023/07/25 10:30:52;;;;;;;2.17;1.90;;;;;;;-141.84;46.26;22430.38;5042214;28;20320;-67
2023/07/25 10:33:24;;;;;;;3.40;2.10;;;;;;;-141.84;46.30;22495.44;5042707;28;20316;-66
2023/07/25 10:35:54;;;;;;;3.30;1.92;;;;;;;-141.84;45.10;22562.56;5042663;28;20316;-67
2023/07/25 10:38:31;;;;;;;3.10;2.00;;;;;;;-141.84;45.90;22593.06;5034337;28;20224;-67
2023/07/25 10:41:00;;;;;;;2.75;1.80;;;;;;;-141.84;45.19;22589.00;5042575;28;20224;-67
2023/07/25 10:43:53;;;;;;;2.75;1.92;;;;;;;-141.84;45.29;22560.53;5042537;28;20263;-67
2023/07/25 10:46:23;;;;;;;2.65;1.60;;;;;;;-141.84;44.88;22542.22;5033616;28;20229;-67
2023/07/25 10:48:53;;;;;;;2.00;1.85;;;;;;;-141.84;45.37;22611.38;5053446;28;20250;-67
2023/07/25 10:51:23;;;;;;;2.92;1.70;;;;;;;-141.84;45.63;22511.72;5050059;28;20240;-66
2023/07/25 10:54:08;;;;;;;3.30;1.83;;;;;;;-141.84;44.93;22589.00;5022760;28;20233;-67
2023/07/25 10:56:37;;;;;;;3.90;1.80;;;;;;;-141.84;45.18;22527.97;5039291;28;20920;-67
2023/07/25 10:59:11;;;;;;;4.20;1.83;;;;;;;-141.84;45.35;22509.69;5052663;28;20240;-67
2023/07/25 11:01:44;;;;;;;3.13;1.75;;;;;;;-141.84;46.54;22385.63;5042248;28;20208;-68
2023/07/25 11:04:30;;;;;;;1.95;1.73;;;;;;;-141.84;46.69;22259.53;5039068;28;20261;-68
2023/07/25 11:07:08;;;;;;;1.92;1.77;;;;;;;-141.84;47.53;22261.56;5042245;28;20225;-67
2023/07/25 11:09:41;;;;;;;3.42;1.88;;;;;;;-141.84;47.62;22204.63;5042476;28;20237;-67
2023/07/25 11:12:11;;;;;;;4.25;2.20;;;;;;;-141.84;48.83;22104.97;5041847;28;20295;-66
2023/07/25 11:14:45;;;;;;;2.63;1.90;;;;;;;-141.84;48.83;22062.28;5038998;28;20230;-67
2023/07/25 11:17:14;;;;;;;2.88;1.90;;;;;;;-141.84;49.06;22068.38;5041334;28;20668;-67
2023/07/25 11:19:43;;;;;;;1.90;1.70;;;;;;;-141.84;48.89;22078.53;5046135;28;20240;-66
2023/07/25 11:22:12;;;;;;;4.47;2.40;;;;;;;-141.84;50.06;22013.47;5045570;28;20304;-67
2023/07/25 11:24:42;;;;;;;2.90;1.90;;;;;;;-141.84;51.19;21972.81;5042546;28;20316;-65
2023/07/25 11:27:11;;;;;;;3.22;2.25;;;;;;;-141.84;50.80;21889.44;5045385;28;20316;-66